Time;durP1;ratioP1;P1;durP2;ratioP2;P2;SDS_P1;SDS_P2;PMS_P1;PMS_P2;Temp;Humidity;BMP_temperature;BMP_pressure;BME280_temperature;BME280_humidity;BME280_pressure;Samples;Min_cycle;Max_cycle;Signal;HPM_P1;HPM_P2
2023/05/19 00:02:10;;;;;;;0.47;0.47;;;10.70;99.90;;;;;;5006008;28;20046;-65
2023/05/19 00:04:36;;;;;;;0.10;0.10;;;10.60;99.90;;;;;;5009337;28;20049;-65
2023/05/19 00:07:02;;;;;;;0.30;0.30;;;10.60;99.90;;;;;;5010542;28;20120;-65
2023/05/19 00:09:28;;;;;;;0.20;0.20;;;10.60;99.90;;;;;;5010346;28;20066;-65
2023/05/19 00:11:55;;;;;;;1.05;0.35;;;10.60;99.90;;;;;;5006413;28;20516;-65
2023/05/19 00:14:21;;;;;;;3.80;0.35;;;10.60;99.90;;;;;;5010271;28;20042;-65
2023/05/19 00:16:47;;;;;;;0.10;0.10;;;10.50;99.90;;;;;;5007566;28;20036;-65
2023/05/19 00:19:13;;;;;;;0.22;0.22;;;10.50;99.90;;;;;;5005634;28;20517;-65
2023/05/19 00:21:39;;;;;;;0.00;0.00;;;10.50;99.90;;;;;;5004812;28;20045;-65
2023/05/19 00:24:05;;;;;;;0.28;0.28;;;10.50;99.90;;;;;;5005993;28;20451;-65
2023/05/19 00:26:31;;;;;;;0.10;0.10;;;10.50;99.90;;;;;;5013185;28;20045;-65
2023/05/19 00:28:56;;;;;;;0.10;0.10;;;10.50;99.90;;;;;;5006548;28;20104;-65
2023/05/19 00:31:22;;;;;;;0.10;0.10;;;10.40;99.90;;;;;;5013726;28;20061;-65
2023/05/19 00:33:48;;;;;;;0.85;0.85;;;10.40;99.90;;;;;;5000432;28;20065;-65
2023/05/19 00:36:14;;;;;;;1.50;1.40;;;10.40;99.90;;;;;;5007538;28;20128;-65
2023/05/19 00:38:39;;;;;;;2.60;0.90;;;10.30;99.90;;;;;;5012358;28;20046;-65
2023/05/19 00:41:06;;;;;;;0.10;0.10;;;10.30;99.90;;;;;;5011131;28;20082;-65
2023/05/19 00:43:34;;;;;;;0.10;0.10;;;10.20;99.90;;;;;;5000240;28;20041;-65
2023/05/19 00:46:00;;;;;;;0.20;0.20;;;10.30;99.90;;;;;;5002558;28;20558;-65
2023/05/19 00:48:26;;;;;;;0.20;0.20;;;10.30;99.90;;;;;;5004883;28;20124;-65
2023/05/19 00:51:03;;;;;;;0.20;0.20;;;10.30;99.90;;;;;;5000569;28;20042;-65
2023/05/19 00:53:29;;;;;;;0.10;0.10;;;10.20;99.90;;;;;;5001362;28;20829;-65
2023/05/19 00:55:56;;;;;;;0.20;0.20;;;10.20;99.90;;;;;;5013199;28;20638;-65
2023/05/19 00:58:22;;;;;;;0.50;0.50;;;10.20;99.90;;;;;;5007727;28;20101;-65
2023/05/19 01:00:49;;;;;;;0.10;0.10;;;10.20;99.90;;;;;;5011096;28;20053;-65
2023/05/19 01:03:19;;;;;;;3.72;2.15;;;10.10;99.90;;;;;;5001269;28;20038;-65
2023/05/19 01:05:44;;;;;;;0.10;0.10;;;10.10;99.90;;;;;;5009844;28;20041;-65
2023/05/19 01:08:10;;;;;;;0.10;0.10;;;10.10;99.90;;;;;;4990654;28;20052;-65
2023/05/19 01:10:36;;;;;;;0.15;0.15;;;10.20;99.90;;;;;;5009983;28;20100;-65
2023/05/19 01:13:03;;;;;;;3.00;1.85;;;10.20;99.90;;;;;;4999560;28;20041;-65
2023/05/19 01:15:32;;;;;;;0.68;0.68;;;10.20;99.90;;;;;;5012586;28;20060;-65
2023/05/19 01:18:12;;;;;;;0.52;0.52;;;10.10;99.90;;;;;;5000821;28;20492;-65
2023/05/19 01:20:45;;;;;;;0.40;0.40;;;10.10;99.90;;;;;;5013097;28;20042;-65
2023/05/19 01:23:46;;;;;;;1.10;0.35;;;10.20;99.90;;;;;;5000251;28;20070;-65
2023/05/19 01:29:36;;;;;;;0.10;0.10;;;10.20;99.90;;;;;;5029137;28;20482;-65
2023/05/19 01:32:05;;;;;;;0.55;0.55;;;10.20;99.90;;;;;;5029546;28;20544;-65
2023/05/19 01:34:32;;;;;;;3.42;1.38;;;10.20;99.90;;;;;;5015480;28;20046;-65
2023/05/19 01:37:00;;;;;;;0.43;0.43;;;10.10;99.90;;;;;;5019361;28;20057;-65
2023/05/19 01:39:26;;;;;;;0.10;0.10;;;10.10;99.90;;;;;;5028537;28;20053;-65
2023/05/19 01:41:53;;;;;;;0.03;0.03;;;10.10;99.90;;;;;;5019208;28;20121;-65
2023/05/19 01:44:20;;;;;;;0.30;0.30;;;10.10;99.90;;;;;;5020007;28;20045;-65
2023/05/19 01:46:46;;;;;;;0.20;0.20;;;10.20;99.90;;;;;;5022381;28;20045;-65
2023/05/19 01:49:12;;;;;;;1.42;1.33;;;10.20;99.90;;;;;;5019995;28;20069;-65
2023/05/19 01:51:39;;;;;;;0.10;0.10;;;10.20;99.90;;;;;;5025843;28;20162;-65
2023/05/19 01:54:04;;;;;;;0.17;0.17;;;10.20;99.90;;;;;;5034959;28;20083;-65
2023/05/19 01:56:43;;;;;;;0.00;0.00;;;10.10;99.90;;;;;;5021080;28;20116;-65
2023/05/19 01:59:31;;;;;;;0.10;0.10;;;10.10;99.90;;;;;;5016478;28;20041;-65
2023/05/19 02:02:02;;;;;;;0.22;0.22;;;10.10;99.90;;;;;;5023922;28;20092;-65
2023/05/19 02:04:43;;;;;;;0.10;0.10;;;10.10;99.90;;;;;;5017214;28;20099;-65
2023/05/19 02:07:31;;;;;;;0.10;0.10;;;10.10;99.90;;;;;;5023337;28;20045;-65
2023/05/19 02:10:13;;;;;;;0.10;0.10;;;10.10;99.90;;;;;;5023088;28;20469;-65
2023/05/19 02:12:39;;;;;;;0.68;0.45;;;10.10;99.90;;;;;;5021137;28;20057;-65
2023/05/19 02:15:15;;;;;;;0.65;0.65;;;10.10;99.90;;;;;;5020195;28;20412;-65
2023/05/19 02:17:47;;;;;;;0.10;0.10;;;10.10;99.90;;;;;;5022083;28;20046;-65
2023/05/19 02:20:14;;;;;;;3.63;1.75;;;10.10;99.90;;;;;;5027600;28;20049;-65
2023/05/19 02:22:40;;;;;;;0.25;0.25;;;10.10;99.90;;;;;;5017296;28;20490;-65
2023/05/19 02:25:06;;;;;;;0.00;0.00;;;10.00;99.90;;;;;;5022606;28;20056;-65
2023/05/19 02:27:33;;;;;;;0.20;0.20;;;10.10;99.90;;;;;;5026428;28;20064;-65
2023/05/19 02:29:58;;;;;;;0.03;0.03;;;10.10;99.90;;;;;;5016773;28;20049;-65
2023/05/19 02:32:24;;;;;;;0.10;0.10;;;10.00;99.90;;;;;;5022765;28;20111;-65
2023/05/19 02:34:50;;;;;;;0.13;0.13;;;10.00;99.90;;;;;;5024442;28;20038;-64
2023/05/19 02:37:16;;;;;;;1.75;1.08;;;9.90;99.90;;;;;;5018989;28;20416;-65
2023/05/19 02:39:42;;;;;;;0.22;0.22;;;9.90;99.90;;;;;;5004869;28;20037;-65
2023/05/19 02:42:08;;;;;;;0.25;0.25;;;9.90;99.90;;;;;;5014543;28;20042;-65
2023/05/19 02:44:34;;;;;;;2.80;1.27;;;9.90;99.90;;;;;;5027779;28;20312;-65
2023/05/19 02:46:59;;;;;;;0.40;0.40;;;9.90;99.90;;;;;;5013949;28;20076;-65
2023/05/19 02:49:25;;;;;;;0.00;0.00;;;9.90;99.90;;;;;;5005126;28;20049;-65
2023/05/19 02:51:52;;;;;;;0.25;0.25;;;9.80;99.90;;;;;;5011362;28;20137;-65
2023/05/19 02:54:17;;;;;;;0.38;0.38;;;9.80;99.90;;;;;;5001539;28;20054;-65
2023/05/19 02:56:43;;;;;;;0.10;0.10;;;9.80;99.90;;;;;;5009001;28;20037;-65
2023/05/19 02:59:08;;;;;;;11.80;2.42;;;9.80;99.90;;;;;;5000169;28;20038;-65
2023/05/19 03:01:36;;;;;;;0.00;0.00;;;9.80;99.90;;;;;;5007993;28;20496;-65
2023/05/19 03:04:02;;;;;;;1.20;1.13;;;9.70;99.90;;;;;;5011275;28;20133;-65
2023/05/19 03:06:28;;;;;;;0.10;0.10;;;9.70;99.90;;;;;;5002343;28;20124;-65
2023/05/19 03:08:53;;;;;;;0.00;0.00;;;9.70;99.90;;;;;;5005152;28;20054;-65
2023/05/19 03:11:19;;;;;;;0.00;0.00;;;9.70;99.90;;;;;;5009108;28;20063;-65
2023/05/19 03:13:45;;;;;;;0.10;0.10;;;9.50;99.90;;;;;;5006975;28;20046;-65
2023/05/19 03:16:11;;;;;;;0.65;0.55;;;9.60;99.90;;;;;;5045592;28;20504;-65
2023/05/19 03:18:37;;;;;;;0.10;0.10;;;9.60;99.90;;;;;;5013371;28;20358;-65
2023/05/19 03:21:02;;;;;;;0.10;0.10;;;9.60;99.90;;;;;;5011357;28;20034;-65
2023/05/19 03:23:28;;;;;;;0.43;0.43;;;9.60;99.90;;;;;;5002967;28;20038;-64
2023/05/19 03:25:55;;;;;;;1.50;1.40;;;9.60;99.90;;;;;;5008204;28;20050;-65
2023/05/19 03:28:22;;;;;;;1.88;1.17;;;9.60;99.90;;;;;;5000532;28;20133;-65
2023/05/19 03:30:49;;;;;;;0.50;0.50;;;9.60;99.90;;;;;;5014278;28;20045;-65
2023/05/19 03:33:15;;;;;;;0.10;0.10;;;9.50;99.90;;;;;;5012119;28;20130;-64
2023/05/19 03:35:40;;;;;;;0.40;0.40;;;9.60;99.90;;;;;;5021708;28;20116;-64
2023/05/19 03:38:06;;;;;;;0.10;0.10;;;9.50;99.90;;;;;;5000805;28;20045;-65
2023/05/19 03:40:32;;;;;;;0.10;0.10;;;9.50;99.90;;;;;;5007025;28;20045;-65
2023/05/19 03:42:57;;;;;;;0.10;0.10;;;9.50;99.90;;;;;;5014834;28;20041;-65
2023/05/19 03:45:23;;;;;;;0.10;0.10;;;9.50;99.90;;;;;;5036401;28;20038;-65
2023/05/19 03:47:48;;;;;;;0.25;0.25;;;9.50;99.90;;;;;;5010506;28;20041;-65
2023/05/19 03:50:14;;;;;;;0.10;0.10;;;9.50;99.90;;;;;;5023864;28;20048;-65
2023/05/19 03:52:45;;;;;;;0.10;0.10;;;9.50;99.90;;;;;;5002432;28;20065;-65
2023/05/19 03:55:12;;;;;;;0.17;0.17;;;9.40;99.90;;;;;;5012635;28;20096;-65
2023/05/19 03:57:40;;;;;;;0.10;0.10;;;9.50;99.90;;;;;;5008629;28;20049;-65
2023/05/19 04:00:06;;;;;;;0.20;0.20;;;9.50;99.90;;;;;;5006460;28;20545;-64
2023/05/19 04:02:32;;;;;;;0.00;0.00;;;9.50;99.90;;;;;;5010043;28;20046;-65
2023/05/19 04:04:57;;;;;;;0.10;0.10;;;9.50;99.90;;;;;;5013880;28;20026;-65
2023/05/19 04:07:23;;;;;;;0.10;0.10;;;9.50;99.90;;;;;;5007897;28;20046;-65
2023/05/19 04:09:49;;;;;;;0.28;0.28;;;9.50;99.90;;;;;;5041743;28;20060;-64
2023/05/19 04:12:15;;;;;;;0.95;0.95;;;9.50;99.90;;;;;;5005743;28;20046;-65
2023/05/19 04:14:40;;;;;;;0.10;0.10;;;9.50;99.90;;;;;;5011963;28;20069;-65
2023/05/19 04:17:06;;;;;;;0.30;0.30;;;9.50;99.90;;;;;;5031632;28;20561;-65
2023/05/19 04:19:32;;;;;;;0.10;0.10;;;9.60;99.90;;;;;;5008160;28;20045;-65
2023/05/19 04:21:57;;;;;;;0.20;0.20;;;9.60;99.90;;;;;;5011207;28;20042;-65
2023/05/19 04:24:23;;;;;;;0.10;0.10;;;9.60;99.90;;;;;;5001340;28;20286;-65
2023/05/19 04:26:49;;;;;;;0.50;0.50;;;9.60;99.90;;;;;;5011102;28;20132;-65
2023/05/19 04:29:16;;;;;;;1.08;1.00;;;9.70;99.90;;;;;;5010654;28;20049;-64
2023/05/19 04:31:43;;;;;;;0.43;0.43;;;9.60;99.90;;;;;;5009054;28;20128;-65
2023/05/19 04:34:09;;;;;;;0.10;0.10;;;9.70;99.90;;;;;;5016824;28;20406;-65
2023/05/19 04:36:35;;;;;;;0.10;0.10;;;9.70;99.90;;;;;;5005236;28;20037;-64
2023/05/19 04:39:03;;;;;;;0.10;0.10;;;9.70;99.90;;;;;;5009725;28;20096;-65
2023/05/19 04:41:28;;;;;;;0.65;0.65;;;9.70;99.90;;;;;;5013123;28;20038;-65
2023/05/19 04:43:56;;;;;;;0.10;0.10;;;9.80;99.90;;;;;;5002244;28;20108;-65
2023/05/19 04:46:23;;;;;;;0.10;0.10;;;9.80;99.90;;;;;;5013413;28;20453;-65
2023/05/19 04:48:49;;;;;;;0.17;0.17;;;9.80;99.90;;;;;;5008128;28;20041;-66
2023/05/19 04:51:16;;;;;;;0.60;0.60;;;9.80;99.90;;;;;;5014209;28;20484;-65
2023/05/19 04:53:42;;;;;;;0.52;0.47;;;9.90;99.90;;;;;;5003068;28;20046;-65
2023/05/19 04:56:08;;;;;;;0.05;0.05;;;9.90;99.90;;;;;;5045689;28;20038;-65
2023/05/19 04:58:34;;;;;;;0.32;0.30;;;10.00;99.90;;;;;;5004008;28;20482;-65
2023/05/19 05:00:59;;;;;;;0.10;0.10;;;10.00;99.90;;;;;;5008501;28;20084;-65
2023/05/19 05:03:25;;;;;;;0.10;0.10;;;10.00;99.90;;;;;;5006698;28;20038;-65
2023/05/19 05:05:51;;;;;;;0.10;0.10;;;10.10;99.90;;;;;;5038080;28;20045;-65
2023/05/19 05:08:22;;;;;;;0.10;0.10;;;10.10;99.90;;;;;;5035247;28;20054;-65
2023/05/19 05:10:51;;;;;;;0.00;0.00;;;10.20;99.90;;;;;;4998416;28;20039;-65
2023/05/19 05:13:20;;;;;;;1.27;1.17;;;10.30;99.90;;;;;;5008121;28;20396;-65
2023/05/19 05:15:46;;;;;;;0.10;0.10;;;10.40;99.90;;;;;;5011508;28;20163;-65
2023/05/19 05:18:12;;;;;;;0.20;0.20;;;10.40;99.90;;;;;;5005228;28;20469;-65
2023/05/19 05:20:38;;;;;;;0.38;0.38;;;10.50;99.90;;;;;;5017657;28;20046;-65
2023/05/19 05:23:04;;;;;;;0.15;0.15;;;10.50;99.90;;;;;;4999305;28;20103;-65
2023/05/19 05:25:30;;;;;;;0.10;0.10;;;10.60;99.90;;;;;;5023785;28;20038;-65
2023/05/19 05:27:57;;;;;;;0.10;0.10;;;10.60;99.90;;;;;;5006939;28;20048;-65
2023/05/19 05:30:23;;;;;;;0.10;0.10;;;10.60;99.90;;;;;;5011226;28;20050;-65
2023/05/19 05:32:48;;;;;;;0.10;0.10;;;10.70;99.90;;;;;;5004245;28;20041;-65
2023/05/19 05:35:14;;;;;;;0.10;0.10;;;10.70;99.90;;;;;;5001329;28;20494;-65
2023/05/19 05:37:40;;;;;;;0.75;0.75;;;10.80;99.90;;;;;;5002550;28;20124;-65
2023/05/19 05:40:06;;;;;;;0.10;0.10;;;10.80;99.90;;;;;;5000438;28;20121;-65
2023/05/19 05:42:32;;;;;;;1.13;0.52;;;10.80;99.90;;;;;;5005145;28;20041;-65
2023/05/19 05:44:57;;;;;;;0.10;0.10;;;10.90;99.90;;;;;;4997012;28;20053;-65
2023/05/19 05:47:23;;;;;;;0.25;0.25;;;10.90;99.90;;;;;;5002666;28;20104;-65
2023/05/19 05:49:49;;;;;;;0.10;0.10;;;11.00;99.90;;;;;;5002301;28;20047;-65
2023/05/19 05:52:17;;;;;;;0.10;0.10;;;11.00;99.90;;;;;;5004861;28;20042;-65
2023/05/19 05:54:43;;;;;;;0.10;0.10;;;11.10;99.90;;;;;;4999375;28;20035;-65
2023/05/19 05:57:09;;;;;;;0.10;0.10;;;11.10;99.90;;;;;;4996754;28;20133;-65
2023/05/19 05:59:34;;;;;;;0.00;0.00;;;11.20;99.90;;;;;;5002982;28;20038;-65
2023/05/19 06:02:00;;;;;;;7.28;1.55;;;11.20;99.90;;;;;;5004628;28;20100;-65
2023/05/19 06:04:26;;;;;;;0.73;0.73;;;11.30;99.90;;;;;;5010772;28;20034;-65
2023/05/19 06:06:52;;;;;;;0.10;0.10;;;11.30;99.90;;;;;;5004287;28;20569;-66
2023/05/19 06:09:17;;;;;;;0.10;0.10;;;11.30;99.90;;;;;;5008751;28;20061;-66
2023/05/19 06:11:43;;;;;;;0.20;0.20;;;11.40;99.90;;;;;;5008256;28;20550;-66
2023/05/19 06:14:09;;;;;;;0.10;0.10;;;11.50;99.90;;;;;;5010263;28;20768;-66
2023/05/19 06:16:35;;;;;;;0.10;0.10;;;11.50;99.90;;;;;;5020651;28;20045;-66
2023/05/19 06:19:00;;;;;;;0.10;0.10;;;11.60;99.90;;;;;;4999686;28;20516;-66
2023/05/19 06:21:26;;;;;;;0.40;0.40;;;11.60;99.90;;;;;;5012862;28;20385;-66
2023/05/19 06:23:52;;;;;;;0.10;0.10;;;11.70;99.90;;;;;;5014923;28;20072;-66
2023/05/19 06:26:17;;;;;;;0.10;0.10;;;11.80;99.90;;;;;;5012009;28;20046;-66
2023/05/19 06:28:43;;;;;;;0.00;0.00;;;11.80;99.90;;;;;;5000883;28;20059;-66
2023/05/19 06:31:08;;;;;;;0.10;0.10;;;11.90;99.90;;;;;;5010637;28;20068;-65
2023/05/19 06:33:34;;;;;;;0.20;0.20;;;11.90;99.90;;;;;;5009201;28;20047;-65
2023/05/19 06:35:59;;;;;;;0.10;0.10;;;12.00;99.90;;;;;;5007954;28;20128;-65
2023/05/19 06:38:25;;;;;;;0.00;0.00;;;12.10;99.90;;;;;;5004551;28;20050;-65
2023/05/19 06:40:50;;;;;;;0.10;0.10;;;12.10;99.90;;;;;;5008498;28;20490;-65
2023/05/19 06:43:16;;;;;;;0.08;0.08;;;12.20;99.90;;;;;;4997261;28;20043;-66
2023/05/19 06:45:42;;;;;;;0.22;0.22;;;12.30;99.90;;;;;;5006103;28;20037;-66
2023/05/19 06:48:07;;;;;;;0.10;0.10;;;12.40;99.90;;;;;;5023260;28;20180;-65
2023/05/19 06:50:33;;;;;;;0.20;0.20;;;12.40;99.90;;;;;;5002589;28;20113;-65
2023/05/19 06:52:59;;;;;;;0.10;0.10;;;12.50;99.90;;;;;;5009971;28;20041;-65
2023/05/19 06:55:24;;;;;;;0.10;0.10;;;12.60;99.90;;;;;;5009032;28;20090;-65
2023/05/19 06:57:50;;;;;;;0.10;0.10;;;12.70;99.90;;;;;;5031653;28;20147;-66
2023/05/19 07:00:17;;;;;;;0.00;0.00;;;12.70;99.90;;;;;;5009524;28;20054;-65
2023/05/19 07:02:43;;;;;;;0.22;0.22;;;12.80;99.90;;;;;;4998372;28;20031;-64
2023/05/19 07:05:09;;;;;;;0.00;0.00;;;12.90;99.90;;;;;;5006004;28;20484;-65
2023/05/19 07:07:34;;;;;;;0.20;0.20;;;13.00;99.90;;;;;;5000750;28;20053;-65
2023/05/19 07:10:00;;;;;;;0.00;0.00;;;13.00;99.90;;;;;;5004597;28;20049;-65
2023/05/19 07:12:25;;;;;;;0.00;0.00;;;13.10;99.90;;;;;;5003125;28;20073;-65
2023/05/19 07:14:52;;;;;;;0.10;0.10;;;13.20;99.90;;;;;;5008275;28;20041;-65
2023/05/19 07:17:17;;;;;;;0.10;0.10;;;13.30;99.90;;;;;;5013512;28;20128;-65
2023/05/19 07:19:43;;;;;;;0.10;0.10;;;13.30;99.90;;;;;;5012091;28;20672;-65
2023/05/19 07:22:08;;;;;;;0.28;0.28;;;13.40;99.90;;;;;;5000930;28;20046;-65
2023/05/19 07:24:34;;;;;;;0.10;0.10;;;13.40;99.90;;;;;;5010773;28;21655;-65
2023/05/19 07:27:00;;;;;;;0.38;0.38;;;13.50;99.90;;;;;;5004313;28;20133;-66
2023/05/19 07:29:25;;;;;;;0.00;0.00;;;13.60;99.90;;;;;;5007438;28;20041;-64
2023/05/19 07:31:53;;;;;;;0.00;0.00;;;13.70;99.90;;;;;;5008881;28;20078;-64
2023/05/19 07:34:20;;;;;;;0.20;0.20;;;13.80;99.90;;;;;;5020187;28;20132;-64
2023/05/19 07:36:46;;;;;;;0.00;0.00;;;13.80;99.90;;;;;;5006794;28;20045;-65
2023/05/19 07:39:12;;;;;;;0.10;0.10;;;13.90;99.90;;;;;;5021015;28;20049;-64
2023/05/19 07:41:37;;;;;;;0.10;0.10;;;13.90;99.90;;;;;;4998471;28;20038;-64
2023/05/19 07:44:06;;;;;;;0.10;0.10;;;14.00;99.90;;;;;;5003479;28;20108;-64
2023/05/19 07:46:32;;;;;;;0.40;0.35;;;14.00;99.90;;;;;;5009670;28;20050;-64
2023/05/19 07:48:58;;;;;;;0.35;0.35;;;14.00;99.90;;;;;;5003602;28;20544;-64
2023/05/19 07:51:23;;;;;;;0.00;0.00;;;14.20;99.90;;;;;;5006860;28;20045;-64
2023/05/19 07:53:50;;;;;;;0.00;0.00;;;14.20;99.90;;;;;;5006908;28;20383;-64
2023/05/19 07:56:15;;;;;;;0.10;0.10;;;14.30;99.90;;;;;;5003673;28;20065;-64
2023/05/19 07:58:41;;;;;;;0.10;0.10;;;14.30;99.90;;;;;;5011289;28;20042;-65
2023/05/19 08:01:07;;;;;;;3.05;1.50;;;14.40;99.90;;;;;;5016977;28;20092;-65
2023/05/19 08:03:32;;;;;;;0.38;0.38;;;14.40;99.90;;;;;;5036112;28;20050;-64
2023/05/19 08:05:58;;;;;;;0.10;0.10;;;14.40;99.90;;;;;;5001899;28;20041;-64
2023/05/19 08:08:23;;;;;;;0.20;0.20;;;14.50;99.90;;;;;;5019974;28;20060;-64
2023/05/19 08:10:49;;;;;;;0.20;0.20;;;14.50;99.90;;;;;;5003791;28;20816;-64
2023/05/19 08:13:15;;;;;;;0.10;0.10;;;14.60;99.90;;;;;;5013286;28;20441;-64
2023/05/19 08:15:41;;;;;;;0.10;0.10;;;14.60;99.90;;;;;;5014667;28;20045;-64
2023/05/19 08:18:07;;;;;;;0.30;0.30;;;14.70;99.90;;;;;;5014899;28;20057;-65
2023/05/19 08:20:32;;;;;;;1.48;0.73;;;14.70;99.90;;;;;;5003061;28;20037;-65
2023/05/19 08:22:58;;;;;;;0.25;0.17;;;14.80;99.90;;;;;;5021554;28;20054;-64
2023/05/19 08:25:24;;;;;;;0.20;0.20;;;14.80;99.90;;;;;;5013898;28;20037;-65
2023/05/19 08:27:50;;;;;;;0.10;0.10;;;15.00;99.90;;;;;;5001506;28;20519;-65
2023/05/19 08:30:15;;;;;;;0.38;0.30;;;15.00;99.90;;;;;;5002022;28;20437;-65
2023/05/19 08:32:41;;;;;;;0.20;0.20;;;15.00;99.90;;;;;;5007108;28;20042;-65
2023/05/19 08:35:07;;;;;;;0.80;0.65;;;15.10;99.90;;;;;;5003272;28;20112;-65
2023/05/19 08:37:35;;;;;;;2.65;0.55;;;15.10;99.90;;;;;;4997398;28;20042;-65
2023/05/19 08:40:03;;;;;;;0.20;0.20;;;15.20;99.90;;;;;;5006458;28;20092;-65
2023/05/19 08:42:29;;;;;;;0.20;0.20;;;15.30;99.90;;;;;;5003694;28;20049;-65
2023/05/19 08:44:55;;;;;;;0.10;0.10;;;15.30;99.90;;;;;;4998423;28;20125;-65
2023/05/19 08:47:21;;;;;;;0.05;0.05;;;15.40;99.90;;;;;;5002233;28;20045;-65
2023/05/19 08:49:51;;;;;;;0.00;0.00;;;15.50;99.90;;;;;;5006120;28;20050;-65
2023/05/19 08:52:44;;;;;;;0.20;0.20;;;15.60;99.90;;;;;;5006307;28;20462;-66
2023/05/19 08:55:20;;;;;;;0.20;0.20;;;15.60;99.90;;;;;;5003696;28;20494;-66
2023/05/19 08:57:48;;;;;;;0.15;0.15;;;15.80;99.90;;;;;;5004065;28;20428;-66
2023/05/19 09:00:15;;;;;;;12.50;1.17;;;15.80;99.90;;;;;;4994990;28;20054;-66
2023/05/19 09:02:42;;;;;;;0.15;0.15;;;15.80;99.90;;;;;;5008339;28;20050;-66
2023/05/19 09:05:08;;;;;;;0.17;0.17;;;15.80;99.90;;;;;;5011286;28;20046;-66
2023/05/19 09:07:36;;;;;;;0.38;0.38;;;15.90;99.90;;;;;;4997044;28;20073;-66
2023/05/19 09:10:02;;;;;;;0.70;0.50;;;16.00;99.90;;;;;;4997015;28;20045;-66
2023/05/19 09:12:28;;;;;;;0.52;0.52;;;16.10;99.90;;;;;;5001646;28;20030;-66
2023/05/19 09:14:55;;;;;;;0.05;0.05;;;16.00;99.90;;;;;;4998732;28;20442;-66
2023/05/19 09:17:21;;;;;;;0.10;0.10;;;16.10;99.90;;;;;;4999862;28;20073;-66
2023/05/19 09:19:48;;;;;;;0.10;0.10;;;16.20;99.90;;;;;;5007078;28;20049;-66
2023/05/19 09:22:15;;;;;;;0.30;0.30;;;16.30;99.90;;;;;;4998017;28;20084;-66
2023/05/19 09:24:41;;;;;;;0.00;0.00;;;16.30;99.90;;;;;;5012422;28;20040;-66
2023/05/19 09:27:07;;;;;;;0.10;0.10;;;16.50;99.90;;;;;;5010873;28;20108;-66
2023/05/19 09:29:33;;;;;;;0.03;0.03;;;16.50;99.90;;;;;;5004246;28;20054;-66
2023/05/19 09:32:03;;;;;;;0.00;0.00;;;16.60;99.90;;;;;;5003341;28;20122;-66
2023/05/19 09:34:29;;;;;;;0.38;0.38;;;16.70;99.90;;;;;;5017735;28;20057;-66
2023/05/19 09:36:56;;;;;;;0.10;0.10;;;16.80;99.90;;;;;;4998715;28;20042;-66
2023/05/19 09:39:23;;;;;;;1.08;0.43;;;17.30;99.90;;;;;;5025154;28;20144;-66
2023/05/19 09:41:53;;;;;;;0.00;0.00;;;17.70;99.90;;;;;;5002515;28;20054;-66
2023/05/19 09:44:23;;;;;;;0.28;0.28;;;18.00;99.90;;;;;;5019912;28;20045;-66
2023/05/19 09:46:50;;;;;;;0.10;0.10;;;18.10;99.90;;;;;;5009730;28;20504;-66
2023/05/19 09:49:20;;;;;;;0.70;0.70;;;18.20;99.90;;;;;;5009966;28;20096;-66
2023/05/19 09:51:54;;;;;;;0.10;0.10;;;18.60;99.90;;;;;;5007664;28;20042;-66
2023/05/19 09:54:22;;;;;;;0.10;0.10;;;19.00;99.90;;;;;;4997950;28;20041;-66
2023/05/19 09:56:59;;;;;;;0.20;0.20;;;19.20;99.90;;;;;;5027046;28;20132;-66
2023/05/19 09:59:26;;;;;;;0.20;0.20;;;19.40;99.90;;;;;;5002822;28;20482;-66
2023/05/19 10:01:54;;;;;;;0.10;0.10;;;19.40;99.90;;;;;;5015334;28;20042;-66
2023/05/19 10:04:21;;;;;;;0.30;0.30;;;19.60;99.90;;;;;;5002817;28;20029;-66
2023/05/19 10:06:52;;;;;;;0.00;0.00;;;19.60;99.90;;;;;;5010071;28;20489;-66
2023/05/19 10:09:23;;;;;;;0.05;0.05;;;19.50;99.90;;;;;;5019463;28;20085;-66
2023/05/19 10:11:54;;;;;;;0.13;0.13;;;19.50;99.90;;;;;;5013154;28;20042;-66
2023/05/19 10:14:26;;;;;;;0.20;0.20;;;19.80;99.90;;;;;;5027271;28;20056;-67
2023/05/19 10:16:57;;;;;;;0.10;0.10;;;20.10;99.90;;;;;;5013153;28;20121;-66
2023/05/19 10:19:27;;;;;;;0.28;0.20;;;20.30;99.90;;;;;;5005136;28;20440;-66
2023/05/19 10:21:54;;;;;;;0.10;0.10;;;20.50;99.90;;;;;;5020248;28;20085;-66
2023/05/19 10:24:20;;;;;;;1.05;0.93;;;20.70;99.90;;;;;;5016609;28;20041;-66
2023/05/19 10:26:55;;;;;;;0.00;0.00;;;20.60;99.80;;;;;;5010209;28;20126;-66
2023/05/19 10:29:26;;;;;;;0.00;0.00;;;20.50;98.90;;;;;;5019075;28;20060;-66
2023/05/19 10:31:55;;;;;;;0.35;0.22;;;20.50;99.90;;;;;;5015604;28;20042;-66
2023/05/19 10:34:58;;;;;;;0.30;0.30;;;20.40;99.90;;;;;;5003221;28;20124;-66
2023/05/19 10:37:40;;;;;;;0.00;0.00;;;20.40;98.50;;;;;;5052855;28;20045;-66
2023/05/19 10:40:31;;;;;;;0.00;0.00;;;20.40;99.10;;;;;;5015883;28;20064;-66
2023/05/19 10:43:10;;;;;;;0.70;0.65;;;20.20;99.40;;;;;;5002402;28;20047;-66
2023/05/19 10:45:51;;;;;;;0.00;0.00;;;20.30;99.80;;;;;;5007207;28;20049;-66
2023/05/19 10:48:20;;;;;;;0.10;0.10;;;20.10;99.50;;;;;;5009413;28;20189;-66
2023/05/19 10:50:46;;;;;;;0.15;0.15;;;20.40;99.90;;;;;;5002796;28;20128;-66
2023/05/19 10:53:20;;;;;;;0.30;0.30;;;20.30;99.90;;;;;;5012134;28;20037;-66
2023/05/19 10:55:51;;;;;;;1.85;0.20;;;20.50;99.00;;;;;;5009227;28;20052;-66
2023/05/19 10:58:39;;;;;;;2.08;1.08;;;20.40;98.80;;;;;;5001765;28;20393;-66
2023/05/19 11:01:12;;;;;;;0.03;0.03;;;20.60;99.10;;;;;;5008475;28;20050;-66
2023/05/19 11:03:48;;;;;;;0.55;0.55;;;20.80;99.60;;;;;;5004464;28;20084;-66
2023/05/19 11:06:28;;;;;;;0.03;0.03;;;20.70;99.50;;;;;;4999960;28;20054;-66
2023/05/19 11:09:12;;;;;;;0.10;0.10;;;20.90;99.90;;;;;;5011804;28;20042;-66
2023/05/19 11:11:52;;;;;;;2.30;0.98;;;20.80;98.20;;;;;;5004216;28;20041;-66
2023/05/19 11:14:25;;;;;;;0.08;0.08;;;20.80;99.00;;;;;;5012292;28;20081;-66
2023/05/19 11:16:55;;;;;;;0.10;0.10;;;20.90;99.20;;;;;;5011596;28;20042;-66
2023/05/19 11:19:31;;;;;;;0.43;0.43;;;21.00;99.30;;;;;;5005821;28;20045;-66
2023/05/19 11:22:11;;;;;;;0.38;0.38;;;21.20;97.10;;;;;;5013385;28;20044;-66
2023/05/19 11:24:43;;;;;;;1.08;0.98;;;21.10;98.80;;;;;;5015305;28;20046;-66
2023/05/19 11:27:31;;;;;;;0.00;0.00;;;20.90;97.20;;;;;;5004880;28;20501;-66
2023/05/19 11:30:00;;;;;;;0.00;0.00;;;20.80;98.50;;;;;;5007754;28;20174;-66
2023/05/19 11:32:32;;;;;;;0.00;0.00;;;21.00;97.90;;;;;;5001500;28;20045;-66
2023/05/19 11:34:59;;;;;;;0.10;0.10;;;21.10;98.40;;;;;;5007078;28;20050;-66
2023/05/19 11:37:25;;;;;;;0.00;0.00;;;21.30;97.20;;;;;;5009857;28;20057;-66
2023/05/19 11:39:51;;;;;;;0.95;0.95;;;21.40;97.00;;;;;;5005179;28;20376;-66
2023/05/19 11:42:17;;;;;;;0.17;0.17;;;21.50;97.60;;;;;;5008854;28;20440;-67
2023/05/19 11:44:46;;;;;;;1.48;0.35;;;21.40;96.70;;;;;;5012413;28;20080;-67
2023/05/19 11:47:13;;;;;;;0.17;0.17;;;21.50;95.70;;;;;;5035337;28;20429;-66
2023/05/19 11:49:43;;;;;;;6.13;2.28;;;21.60;96.70;;;;;;5005313;28;20085;-67
2023/05/19 11:52:09;;;;;;;0.10;0.10;;;21.60;94.90;;;;;;5012899;28;20045;-67
2023/05/19 11:54:35;;;;;;;0.00;0.00;;;21.70;95.90;;;;;;5013064;28;20048;-67
2023/05/19 11:57:02;;;;;;;12.95;0.50;;;21.70;96.50;;;;;;5009516;28;20060;-67
2023/05/19 11:59:32;;;;;;;0.50;0.50;;;21.30;96.40;;;;;;5014856;28;20049;-67
2023/05/19 12:02:20;;;;;;;1.20;0.30;;;21.50;98.50;;;;;;5011225;28;20034;-67
2023/05/19 12:04:50;;;;;;;0.10;0.10;;;21.60;96.60;;;;;;5010475;28;20508;-67
2023/05/19 12:07:18;;;;;;;0.00;0.00;;;21.80;97.40;;;;;;5028319;28;20053;-67
2023/05/19 12:09:47;;;;;;;0.00;0.00;;;21.70;96.30;;;;;;5013176;28;20042;-67
2023/05/19 12:12:15;;;;;;;0.00;0.00;;;21.60;96.80;;;;;;5013089;28;20042;-67
2023/05/19 12:14:41;;;;;;;0.63;0.35;;;22.00;96.30;;;;;;5002066;28;20042;-66
2023/05/19 12:17:12;;;;;;;0.30;0.30;;;21.80;95.60;;;;;;5005090;28;20049;-67
2023/05/19 12:19:38;;;;;;;0.00;0.00;;;22.00;95.30;;;;;;5009953;28;20049;-66
2023/05/19 12:22:05;;;;;;;0.00;0.00;;;22.30;95.70;;;;;;5012324;28;20096;-67
2023/05/19 12:24:35;;;;;;;2.20;0.90;;;22.30;95.30;;;;;;5013647;28;20042;-67
2023/05/19 12:27:19;;;;;;;0.10;0.10;;;22.40;94.80;;;;;;5012106;28;20125;-67
2023/05/19 12:29:56;;;;;;;0.28;0.28;;;22.10;94.90;;;;;;5014763;28;20046;-67
2023/05/19 12:32:27;;;;;;;0.10;0.10;;;22.30;95.00;;;;;;5001967;28;20045;-67
2023/05/19 12:34:56;;;;;;;3.30;0.35;;;22.50;94.80;;;;;;5004443;28;20093;-67
2023/05/19 12:37:26;;;;;;;4.38;0.22;;;22.60;95.10;;;;;;5009621;28;20092;-67
2023/05/19 12:39:52;;;;;;;0.30;0.30;;;22.80;95.80;;;;;;5004411;28;20056;-67
2023/05/19 12:42:17;;;;;;;0.00;0.00;;;22.70;94.70;;;;;;5000516;28;20133;-67
2023/05/19 12:44:45;;;;;;;0.20;0.20;;;22.80;94.90;;;;;;5027296;28;20630;-68
2023/05/19 12:47:12;;;;;;;0.20;0.20;;;22.70;94.40;;;;;;5005350;28;20117;-68
2023/05/19 12:49:55;;;;;;;0.03;0.03;;;22.50;94.70;;;;;;5003966;28;20073;-68
2023/05/19 12:52:22;;;;;;;0.00;0.00;;;22.20;95.70;;;;;;4998739;28;20041;-67
2023/05/19 12:54:48;;;;;;;0.00;0.00;;;22.40;95.60;;;;;;5004901;28;20046;-68
2023/05/19 12:57:18;;;;;;;0.73;0.73;;;22.70;95.30;;;;;;5003548;28;20033;-66